createdAt,value
2018-11-11T00:01:10.923Z,62.90
2018-11-11T00:01:49.917Z,65.20
2018-11-11T00:02:50.024Z,50.10
2018-11-11T00:03:49.912Z,56.10
2018-11-11T00:04:49.901Z,44.30
2018-11-11T00:05:49.901Z,48.40
2018-11-11T00:07:10.910Z,45.90
2018-11-11T00:07:49.894Z,50.00
2018-11-11T00:08:49.889Z,59.60
2018-11-11T00:09:49.909Z,52.40
2018-11-11T00:10:49.879Z,56.20
2018-11-11T00:11:49.882Z,53.60
2018-11-11T00:13:10.991Z,70.70
2018-11-11T00:13:49.869Z,57.60
2018-11-11T00:14:49.885Z,75.20
2018-11-11T00:15:49.861Z,69.90
2018-11-11T00:16:49.889Z,124.40
2018-11-11T00:17:49.904Z,67.70
2018-11-11T00:19:10.858Z,86.00
2018-11-11T00:19:49.853Z,77.10
2018-11-11T00:20:49.852Z,76.20
2018-11-11T00:21:49.894Z,102.70
2018-11-11T00:22:49.837Z,119.40
2018-11-11T00:23:49.832Z,100.30
2018-11-11T00:25:10.834Z,115.20
2018-11-11T00:25:49.820Z,55.30
2018-11-11T00:26:49.823Z,80.00
2018-11-11T00:27:49.815Z,75.80
2018-11-11T00:28:49.910Z,74.40
2018-11-11T00:29:49.805Z,45.00
2018-11-11T00:31:10.810Z,40.60
2018-11-11T00:31:49.833Z,44.20
2018-11-11T00:32:49.794Z,70.40
2018-11-11T00:33:49.788Z,57.80
2018-11-11T00:34:49.789Z,81.10
2018-11-11T00:35:49.782Z,118.60
2018-11-11T00:37:10.785Z,81.60
2018-11-11T00:37:49.774Z,53.50
2018-11-11T00:38:49.767Z,80.30
2018-11-11T00:39:49.766Z,51.30
2018-11-11T00:40:49.766Z,36.60
2018-11-11T00:41:49.760Z,43.90
2018-11-11T00:43:10.776Z,55.00
2018-11-11T00:43:49.751Z,77.50
2018-11-11T00:44:49.746Z,100.50
2018-11-11T00:45:49.746Z,82.90
2018-11-11T00:46:49.739Z,67.80
2018-11-11T00:47:49.745Z,98.40
2018-11-11T00:49:10.738Z,52.60
2018-11-11T00:49:49.727Z,35.00
2018-11-11T00:50:49.725Z,181.70
2018-11-11T00:51:49.734Z,102.00
2018-11-11T00:52:49.740Z,134.40
2018-11-11T00:53:49.722Z,65.80
2018-11-11T00:55:10.734Z,51.00
2018-11-11T00:55:49.705Z,63.90
2018-11-11T00:56:49.711Z,40.60
2018-11-11T00:57:49.697Z,50.90
2018-11-11T00:58:49.709Z,74.80
2018-11-11T00:59:49.688Z,66.80
2018-11-11T01:01:10.695Z,64.40
2018-11-11T01:01:49.680Z,56.70
2018-11-11T01:02:49.817Z,54.60
2018-11-11T01:03:49.673Z,54.90
2018-11-11T01:04:49.684Z,52.10
2018-11-11T01:05:49.665Z,54.80
2018-11-11T01:07:10.668Z,56.00
2018-11-11T01:07:49.660Z,50.30
2018-11-11T01:08:49.652Z,36.10
2018-11-11T01:09:49.656Z,47.00
2018-11-11T01:10:49.687Z,67.60
2018-11-11T01:11:49.649Z,56.50
2018-11-11T01:13:10.709Z,63.40
2018-11-11T01:13:49.638Z,90.10
2018-11-11T01:14:49.629Z,68.20
2018-11-11T01:15:49.639Z,65.80
2018-11-11T01:16:49.655Z,78.80
2018-11-11T01:17:49.617Z,57.70
2018-11-11T01:19:10.639Z,46.30
2018-11-11T01:19:49.610Z,31.60
2018-11-11T01:20:49.605Z,32.40
2018-11-11T01:21:49.601Z,42.10
2018-11-11T01:22:49.597Z,155.00
2018-11-11T01:23:49.591Z,33.00
2018-11-11T01:25:10.604Z,31.80
2018-11-11T01:25:49.604Z,56.20
2018-11-11T01:26:49.582Z,122.20
2018-11-11T01:27:49.580Z,58.40
2018-11-11T01:28:49.577Z,86.50
2018-11-11T01:29:49.584Z,74.70
2018-11-11T01:31:10.576Z,77.60
2018-11-11T01:31:49.564Z,77.90
2018-11-11T01:32:49.574Z,60.30
2018-11-11T01:33:49.558Z,36.00
2018-11-11T01:34:49.566Z,35.10
2018-11-11T01:35:49.552Z,41.10
2018-11-11T01:37:10.594Z,77.10
2018-11-11T01:37:49.589Z,48.50
2018-11-11T01:38:49.536Z,75.40
2018-11-11T01:39:49.559Z,46.30
2018-11-11T01:40:49.528Z,105.90
2018-11-11T01:41:49.523Z,37.10
2018-11-11T01:43:10.572Z,36.90
2018-11-11T01:43:49.516Z,41.10
2018-11-11T01:44:49.516Z,57.70
2018-11-11T01:45:49.516Z,32.70
2018-11-11T01:46:49.502Z,73.60
2018-11-11T01:47:49.504Z,73.80
2018-11-11T01:49:10.507Z,62.30
2018-11-11T01:49:49.499Z,82.20
2018-11-11T01:50:49.498Z,41.30
2018-11-11T01:51:49.486Z,42.90
2018-11-11T01:52:49.481Z,31.00
2018-11-11T01:53:49.485Z,26.00
2018-11-11T01:55:10.482Z,21.50
2018-11-11T01:55:49.484Z,22.90
2018-11-11T01:56:49.464Z,24.40
2018-11-11T01:57:49.460Z,31.80
2018-11-11T01:58:49.455Z,23.20
2018-11-11T01:59:49.452Z,147.80
2018-11-11T02:01:10.456Z,181.70
2018-11-11T02:01:49.443Z,85.00
2018-11-11T02:02:49.445Z,39.50
2018-11-11T02:03:49.445Z,38.10
2018-11-11T02:04:49.437Z,29.70
2018-11-11T02:05:49.430Z,27.70
2018-11-11T02:07:10.435Z,40.30
2018-11-11T02:07:49.420Z,35.60
2018-11-11T02:08:49.417Z,30.40
2018-11-11T02:09:49.473Z,26.10
2018-11-11T02:10:49.409Z,35.50
2018-11-11T02:11:49.403Z,65.00
2018-11-11T02:13:10.472Z,65.40
2018-11-11T02:13:49.415Z,46.30
2018-11-11T02:14:49.391Z,40.50
2018-11-11T02:15:49.390Z,38.10
2018-11-11T02:16:49.383Z,69.90
2018-11-11T02:17:49.377Z,76.60
2018-11-11T02:19:10.386Z,59.50
2018-11-11T02:19:49.371Z,50.20
2018-11-11T02:20:49.418Z,40.50
2018-11-11T02:21:49.372Z,49.60
2018-11-11T02:22:49.358Z,45.90
2018-11-11T02:23:49.360Z,37.50
2018-11-11T02:25:10.356Z,50.20
2018-11-11T02:25:49.346Z,60.90
2018-11-11T02:26:49.377Z,44.20
2018-11-11T02:27:49.346Z,62.30
2018-11-11T02:28:49.332Z,79.90
2018-11-11T02:29:49.328Z,46.40
2018-11-11T02:31:10.335Z,32.70
2018-11-11T02:31:49.320Z,31.70
2018-11-11T02:32:49.321Z,28.00
2018-11-11T02:33:49.317Z,34.20
2018-11-11T02:34:49.307Z,25.20
2018-11-11T02:35:49.316Z,32.40
2018-11-11T02:37:10.306Z,57.70
2018-11-11T02:37:49.323Z,45.60
2018-11-11T02:38:49.295Z,115.30
2018-11-11T02:39:49.286Z,52.90
2018-11-11T02:40:49.285Z,47.80
2018-11-11T02:41:49.275Z,90.00
2018-11-11T02:43:10.361Z,37.30
2018-11-11T02:43:49.270Z,86.40
2018-11-11T02:44:49.262Z,57.50
2018-11-11T02:45:49.275Z,237.70
2018-11-11T02:46:49.258Z,33.00
2018-11-11T02:47:49.253Z,26.60
2018-11-11T02:49:10.253Z,33.00
2018-11-11T02:49:49.246Z,54.20
2018-11-11T02:50:49.236Z,43.60
2018-11-11T02:51:49.234Z,31.00
2018-11-11T02:52:49.231Z,34.10
2018-11-11T02:53:49.227Z,114.50
2018-11-11T02:55:10.244Z,75.80
2018-11-11T02:55:49.226Z,172.40
2018-11-11T02:56:49.234Z,48.00
2018-11-11T02:57:49.210Z,39.10
2018-11-11T02:58:49.205Z,37.50
2018-11-11T02:59:49.198Z,28.60
2018-11-11T03:01:10.202Z,26.60
2018-11-11T03:01:49.192Z,27.90
2018-11-11T03:02:49.202Z,28.80
2018-11-11T03:03:49.183Z,26.20
2018-11-11T03:04:49.178Z,27.00
2018-11-11T03:05:49.179Z,23.20
2018-11-11T03:07:10.177Z,24.90
2018-11-11T03:07:49.162Z,27.80
2018-11-11T03:08:49.159Z,26.80
2018-11-11T03:09:49.154Z,26.70
2018-11-11T03:10:49.154Z,27.20
2018-11-11T03:11:49.145Z,26.70
2018-11-11T03:13:10.260Z,26.00
2018-11-11T03:13:49.140Z,24.10
2018-11-11T03:14:49.131Z,30.10
2018-11-11T03:15:49.129Z,27.40
2018-11-11T03:16:49.123Z,24.50
2018-11-11T03:17:49.124Z,25.50
2018-11-11T03:19:10.121Z,27.40
2018-11-11T03:19:49.119Z,26.80
2018-11-11T03:20:49.108Z,26.00
2018-11-11T03:21:49.099Z,23.70
2018-11-11T03:22:49.096Z,25.50
2018-11-11T03:23:49.093Z,23.10
2018-11-11T03:25:10.094Z,23.70
2018-11-11T03:25:49.080Z,22.70
2018-11-11T03:26:49.079Z,25.90
2018-11-11T03:27:49.073Z,26.30
2018-11-11T03:28:49.073Z,27.10
2018-11-11T03:29:49.069Z,23.20
2018-11-11T03:31:10.079Z,24.60
2018-11-11T03:31:49.058Z,23.70
2018-11-11T03:32:49.060Z,25.20
2018-11-11T03:33:49.043Z,24.40
2018-11-11T03:34:49.036Z,26.40
2018-11-11T03:35:49.036Z,23.70
2018-11-11T03:37:10.038Z,23.00
2018-11-11T03:37:49.029Z,24.80
2018-11-11T03:38:49.021Z,26.90
2018-11-11T03:39:49.016Z,26.40
2018-11-11T03:40:49.011Z,24.10
2018-11-11T03:41:49.005Z,25.10
2018-11-11T03:43:10.052Z,27.80
2018-11-11T03:43:48.999Z,25.90
2018-11-11T03:44:48.993Z,24.50
2018-11-11T03:45:48.988Z,26.80
2018-11-11T03:46:48.988Z,25.40
2018-11-11T03:47:48.979Z,26.60
2018-11-11T03:49:09.985Z,27.50
2018-11-11T03:49:48.970Z,26.40
2018-11-11T03:50:48.966Z,26.80
2018-11-11T03:51:48.961Z,24.90
2018-11-11T03:52:48.958Z,25.50
2018-11-11T03:53:48.950Z,25.90
2018-11-11T03:55:09.956Z,25.60
2018-11-11T03:55:48.941Z,28.60
2018-11-11T03:56:48.935Z,24.40
2018-11-11T03:57:48.934Z,24.30
2018-11-11T03:58:48.967Z,25.30
2018-11-11T03:59:48.922Z,28.60
2018-11-11T04:01:09.924Z,23.10
2018-11-11T04:01:48.915Z,23.40
2018-11-11T04:02:48.998Z,28.50
2018-11-11T04:03:48.918Z,30.10
2018-11-11T04:04:48.901Z,28.80
2018-11-11T04:05:48.896Z,26.00
2018-11-11T04:07:09.900Z,26.60
2018-11-11T04:07:48.885Z,24.40
2018-11-11T04:08:48.881Z,26.90
2018-11-11T04:09:48.877Z,27.10
2018-11-11T04:10:48.875Z,28.50
2018-11-11T04:11:48.910Z,26.70
2018-11-11T04:13:09.954Z,25.20
2018-11-11T04:13:48.857Z,26.50
2018-11-11T04:14:48.853Z,26.40
2018-11-11T04:15:48.848Z,25.10
2018-11-11T04:16:48.845Z,25.70
2018-11-11T04:17:48.838Z,26.60
2018-11-11T04:19:09.877Z,28.80
2018-11-11T04:19:48.830Z,22.70
2018-11-11T04:20:48.826Z,29.50
2018-11-11T04:21:48.820Z,24.80
2018-11-11T04:22:48.815Z,27.40
2018-11-11T04:23:48.816Z,26.50
2018-11-11T04:25:09.818Z,29.70
2018-11-11T04:25:48.800Z,25.40
2018-11-11T04:26:48.797Z,27.00
2018-11-11T04:27:48.792Z,26.90
2018-11-11T04:28:48.792Z,24.90
2018-11-11T04:29:48.784Z,26.10
2018-11-11T04:31:09.790Z,26.60
2018-11-11T04:31:48.774Z,25.60
2018-11-11T04:32:48.771Z,28.20
2018-11-11T04:33:48.769Z,25.50
2018-11-11T04:34:48.763Z,25.60
2018-11-11T04:35:48.755Z,26.70
2018-11-11T04:37:09.759Z,28.90
2018-11-11T04:37:48.770Z,25.30
2018-11-11T04:38:48.743Z,27.30
2018-11-11T04:39:48.745Z,28.60
2018-11-11T04:40:48.731Z,27.40
2018-11-11T04:41:48.728Z,27.80
2018-11-11T04:43:09.745Z,26.80
2018-11-11T04:43:48.725Z,24.10
2018-11-11T04:44:48.713Z,28.50
2018-11-11T04:45:48.709Z,27.00
2018-11-11T04:46:48.707Z,26.60
2018-11-11T04:47:48.699Z,27.30
2018-11-11T04:49:09.713Z,30.00
2018-11-11T04:49:48.689Z,27.40
2018-11-11T04:50:48.690Z,28.10
2018-11-11T04:51:48.688Z,26.80
2018-11-11T04:52:48.677Z,26.50
2018-11-11T04:53:48.690Z,27.80
2018-11-11T04:55:09.674Z,26.60
2018-11-11T04:55:48.664Z,27.90
2018-11-11T04:56:48.658Z,29.50
2018-11-11T04:57:48.656Z,26.90
2018-11-11T04:58:48.648Z,25.50
2018-11-11T04:59:48.647Z,29.40
2018-11-11T05:01:09.642Z,27.40
2018-11-11T05:01:48.635Z,27.20
2018-11-11T05:02:48.637Z,25.80
2018-11-11T05:03:48.625Z,26.80
2018-11-11T05:04:48.693Z,28.30
2018-11-11T05:05:48.619Z,27.20
2018-11-11T05:07:09.620Z,27.40
2018-11-11T05:07:48.608Z,29.00
2018-11-11T05:08:48.602Z,28.80
2018-11-11T05:09:48.596Z,27.50
2018-11-11T05:10:48.594Z,26.60
2018-11-11T05:11:48.590Z,24.20
2018-11-11T05:13:09.645Z,25.00
2018-11-11T05:13:48.581Z,28.20
2018-11-11T05:14:48.576Z,26.20
2018-11-11T05:15:48.569Z,23.20
2018-11-11T05:16:48.564Z,26.20
2018-11-11T05:17:48.564Z,24.50
2018-11-11T05:19:09.565Z,24.40
2018-11-11T05:19:48.551Z,26.70
2018-11-11T05:20:48.549Z,26.50
2018-11-11T05:21:48.591Z,24.40
2018-11-11T05:22:48.542Z,24.30
2018-11-11T05:23:48.540Z,24.00
2018-11-11T05:25:09.535Z,25.90
2018-11-11T05:25:48.526Z,24.90
2018-11-11T05:26:48.523Z,23.40
2018-11-11T05:27:48.515Z,23.30
2018-11-11T05:28:48.507Z,24.90
2018-11-11T05:29:48.523Z,24.10
2018-11-11T05:31:09.509Z,26.20
2018-11-11T05:31:48.497Z,23.40
2018-11-11T05:32:48.583Z,24.10
2018-11-11T05:33:48.489Z,25.40
2018-11-11T05:34:48.482Z,27.70
2018-11-11T05:35:48.477Z,25.30
2018-11-11T05:37:09.477Z,26.10
2018-11-11T05:37:48.465Z,22.60
2018-11-11T05:38:48.473Z,27.20
2018-11-11T05:39:48.458Z,26.00
2018-11-11T05:40:48.453Z,28.90
2018-11-11T05:41:48.479Z,27.30
2018-11-11T05:43:09.540Z,27.20
2018-11-11T05:43:48.438Z,27.10
2018-11-11T05:44:48.436Z,27.30
2018-11-11T05:45:48.428Z,24.40
2018-11-11T05:46:48.423Z,26.40
2018-11-11T05:47:48.421Z,24.00
2018-11-11T05:49:09.419Z,28.60
2018-11-11T05:49:48.411Z,27.90
2018-11-11T05:50:48.404Z,25.70
2018-11-11T05:51:48.401Z,31.20
2018-11-11T05:52:48.394Z,29.00
2018-11-11T05:53:48.388Z,31.80
2018-11-11T05:55:09.397Z,30.80
2018-11-11T05:55:48.381Z,30.80
2018-11-11T05:56:48.374Z,28.40
2018-11-11T05:57:48.370Z,28.70
2018-11-11T05:58:48.366Z,28.70
2018-11-11T05:59:48.359Z,26.10
2018-11-11T06:01:09.362Z,29.80
2018-11-11T06:01:48.352Z,28.70
2018-11-11T06:02:48.357Z,32.20
2018-11-11T06:03:48.342Z,30.80
2018-11-11T06:04:48.340Z,28.40
2018-11-11T06:05:48.331Z,28.50
2018-11-11T06:07:09.334Z,31.40
2018-11-11T06:07:48.322Z,29.40
2018-11-11T06:08:48.319Z,27.70
2018-11-11T06:09:48.313Z,30.20
2018-11-11T06:10:48.308Z,27.50
2018-11-11T06:11:48.307Z,28.20
2018-11-11T06:13:09.335Z,29.80
2018-11-11T06:13:48.298Z,29.30
2018-11-11T06:14:48.289Z,31.10
2018-11-11T06:15:48.282Z,28.90
2018-11-11T06:16:48.281Z,30.30
2018-11-11T06:17:48.275Z,28.90
2018-11-11T06:19:09.277Z,28.00
2018-11-11T06:19:48.266Z,30.50
2018-11-11T06:20:48.258Z,31.40
2018-11-11T06:21:48.253Z,29.50
2018-11-11T06:22:48.250Z,29.30
2018-11-11T06:23:48.243Z,31.60
2018-11-11T06:25:09.245Z,29.50
2018-11-11T06:25:48.236Z,28.50
2018-11-11T06:26:48.230Z,31.60
2018-11-11T06:27:48.225Z,32.10
2018-11-11T06:28:48.216Z,28.80
2018-11-11T06:29:48.217Z,32.60
2018-11-11T06:31:09.216Z,30.30
2018-11-11T06:31:48.210Z,29.80
2018-11-11T06:32:48.200Z,31.30
2018-11-11T06:33:48.231Z,32.60
2018-11-11T06:34:48.191Z,34.70
2018-11-11T06:35:48.187Z,31.80
2018-11-11T06:37:09.185Z,31.50
2018-11-11T06:37:48.173Z,33.80
2018-11-11T06:38:48.168Z,30.30
2018-11-11T06:39:48.166Z,32.80
2018-11-11T06:40:48.161Z,31.80
2018-11-11T06:41:48.158Z,33.40
2018-11-11T06:43:09.233Z,31.60
2018-11-11T06:43:48.145Z,31.70
2018-11-11T06:44:48.141Z,29.50
2018-11-11T06:45:48.136Z,31.50
2018-11-11T06:46:48.130Z,32.70
2018-11-11T06:47:48.167Z,34.80
2018-11-11T06:49:09.135Z,32.30
2018-11-11T06:49:48.115Z,32.60
2018-11-11T06:50:48.110Z,31.20
2018-11-11T06:51:48.106Z,30.90
2018-11-11T06:52:48.109Z,30.60
2018-11-11T06:53:48.104Z,32.40
2018-11-11T06:55:09.099Z,30.40
2018-11-11T06:55:48.087Z,31.60
2018-11-11T06:56:48.081Z,29.30
2018-11-11T06:57:48.132Z,27.60
2018-11-11T06:58:48.071Z,30.90
2018-11-11T06:59:48.068Z,28.50
2018-11-11T07:01:09.065Z,27.40
2018-11-11T07:01:48.055Z,29.80
2018-11-11T07:02:48.050Z,31.20
2018-11-11T07:03:48.045Z,24.80
2018-11-11T07:04:48.039Z,27.80
2018-11-11T07:05:48.034Z,27.60
2018-11-11T07:07:09.042Z,24.30
2018-11-11T07:07:48.026Z,27.20
2018-11-11T07:08:48.021Z,27.10
2018-11-11T07:09:48.016Z,28.10
2018-11-11T07:10:48.010Z,25.70
2018-11-11T07:11:48.004Z,23.90
2018-11-11T07:13:09.027Z,22.70
2018-11-11T07:13:48.017Z,26.00
2018-11-11T07:14:47.994Z,23.20
2018-11-11T07:15:47.990Z,23.70
2018-11-11T07:16:47.980Z,26.70
2018-11-11T07:17:47.974Z,25.20
2018-11-11T07:19:08.977Z,24.30
2018-11-11T07:19:47.965Z,27.50
2018-11-11T07:20:47.958Z,24.50
2018-11-11T07:21:47.955Z,23.70
2018-11-11T07:22:47.951Z,23.00
2018-11-11T07:23:48.056Z,24.40
2018-11-11T07:25:08.948Z,24.00
2018-11-11T07:25:47.933Z,24.80
2018-11-11T07:26:47.930Z,23.40
2018-11-11T07:27:47.927Z,24.80
2018-11-11T07:28:47.925Z,26.10
2018-11-11T07:29:47.918Z,24.60
2018-11-11T07:31:08.916Z,27.40
2018-11-11T07:31:47.914Z,25.50
2018-11-11T07:32:47.901Z,24.00
2018-11-11T07:33:47.896Z,24.80
2018-11-11T07:34:47.913Z,24.10
2018-11-11T07:35:47.926Z,26.00
2018-11-11T07:37:08.886Z,23.20
2018-11-11T07:37:47.874Z,23.50
2018-11-11T07:38:47.871Z,24.00
2018-11-11T07:39:47.867Z,24.20
2018-11-11T07:40:47.859Z,24.40
2018-11-11T07:41:47.854Z,23.20
2018-11-11T07:43:08.922Z,22.60
2018-11-11T07:43:47.849Z,24.90
2018-11-11T07:44:47.840Z,23.00
2018-11-11T07:45:47.836Z,27.20
2018-11-11T07:46:47.833Z,22.40
2018-11-11T07:47:47.863Z,22.70
2018-11-11T07:49:08.829Z,24.20
2018-11-11T07:49:47.817Z,23.20
2018-11-11T07:50:47.813Z,23.80
2018-11-11T07:51:47.836Z,21.50
2018-11-11T07:52:47.803Z,22.60
2018-11-11T07:53:47.796Z,23.30
2018-11-11T07:55:08.925Z,23.90
2018-11-11T07:55:47.786Z,21.50
2018-11-11T07:56:47.786Z,23.40
2018-11-11T07:57:47.776Z,21.90
2018-11-11T07:58:47.774Z,23.70
2018-11-11T07:59:47.767Z,22.40
2018-11-11T08:01:08.768Z,24.50
2018-11-11T08:01:47.885Z,25.10
2018-11-11T08:02:47.764Z,22.90
2018-11-11T08:03:47.756Z,22.70
2018-11-11T08:04:47.742Z,24.70
2018-11-11T08:05:47.737Z,24.00
2018-11-11T08:07:08.742Z,25.30
2018-11-11T08:07:47.735Z,23.90
2018-11-11T08:08:47.720Z,24.00
2018-11-11T08:09:47.717Z,25.20
2018-11-11T08:10:47.713Z,24.10
2018-11-11T08:11:47.707Z,22.50
2018-11-11T08:13:08.821Z,23.40
2018-11-11T08:13:47.697Z,22.90
2018-11-11T08:14:47.693Z,23.90
2018-11-11T08:15:47.688Z,24.00
2018-11-11T08:16:47.819Z,23.50
2018-11-11T08:17:47.676Z,23.80
2018-11-11T08:19:08.681Z,23.20
2018-11-11T08:19:47.671Z,26.70
2018-11-11T08:20:47.665Z,22.30
2018-11-11T08:21:47.656Z,24.00
2018-11-11T08:22:47.659Z,24.00
2018-11-11T08:23:47.651Z,23.50
2018-11-11T08:25:08.649Z,23.00
2018-11-11T08:25:47.639Z,22.50
2018-11-11T08:26:47.635Z,24.60
2018-11-11T08:27:47.630Z,22.70
2018-11-11T08:28:47.624Z,24.00
2018-11-11T08:29:47.620Z,21.40
2018-11-11T08:31:08.636Z,25.40
2018-11-11T08:31:47.613Z,21.60
2018-11-11T08:32:47.658Z,20.40
2018-11-11T08:33:47.602Z,20.70
2018-11-11T08:34:47.598Z,23.70
2018-11-11T08:35:47.591Z,21.40
2018-11-11T08:37:08.593Z,22.90
2018-11-11T08:37:47.582Z,23.40
2018-11-11T08:38:47.576Z,22.30
2018-11-11T08:39:47.574Z,21.50
2018-11-11T08:40:47.567Z,21.60
2018-11-11T08:41:47.563Z,24.70
2018-11-11T08:43:08.622Z,22.90
2018-11-11T08:43:47.555Z,22.90
2018-11-11T08:44:47.548Z,19.90
2018-11-11T08:45:47.552Z,20.80
2018-11-11T08:46:47.540Z,24.70
2018-11-11T08:47:47.538Z,20.30
2018-11-11T08:49:08.540Z,23.20
2018-11-11T08:49:47.533Z,22.40
2018-11-11T08:50:47.522Z,24.20
2018-11-11T08:51:47.519Z,23.30
2018-11-11T08:52:47.527Z,19.70
2018-11-11T08:53:47.511Z,21.00
2018-11-11T08:55:08.517Z,22.10
2018-11-11T08:55:47.501Z,19.40
2018-11-11T08:56:47.502Z,24.00
2018-11-11T08:57:47.523Z,22.20
2018-11-11T08:58:47.491Z,20.50
2018-11-11T08:59:47.484Z,23.50
2018-11-11T09:01:08.491Z,25.60
2018-11-11T09:01:47.480Z,23.10
2018-11-11T09:02:47.471Z,23.30
2018-11-11T09:03:47.466Z,24.80
2018-11-11T09:04:47.508Z,24.30
2018-11-11T09:05:47.462Z,21.60
2018-11-11T09:07:08.465Z,22.00
2018-11-11T09:07:47.449Z,22.10
2018-11-11T09:08:47.454Z,21.90
2018-11-11T09:09:47.441Z,21.30
2018-11-11T09:10:47.433Z,22.20
2018-11-11T09:11:47.434Z,24.20
2018-11-11T09:13:08.512Z,22.80
2018-11-11T09:13:47.423Z,24.20
2018-11-11T09:14:47.417Z,23.40
2018-11-11T09:15:47.411Z,24.40
2018-11-11T09:16:47.412Z,23.70
2018-11-11T09:17:47.403Z,24.80
2018-11-11T09:19:08.409Z,24.40
2018-11-11T09:19:47.394Z,21.80
2018-11-11T09:20:47.388Z,25.70
2018-11-11T09:21:47.385Z,26.70
2018-11-11T09:22:47.383Z,25.60
2018-11-11T09:23:47.424Z,29.50
2018-11-11T09:25:08.381Z,24.70
2018-11-11T09:25:47.366Z,25.80
2018-11-11T09:26:47.374Z,25.60
2018-11-11T09:27:47.360Z,25.80
2018-11-11T09:28:47.354Z,24.60
2018-11-11T09:29:47.466Z,24.90
2018-11-11T09:31:08.355Z,23.90
2018-11-11T09:31:47.341Z,25.30
2018-11-11T09:32:47.339Z,24.50
2018-11-11T09:33:47.332Z,27.80
2018-11-11T09:34:47.328Z,27.30
2018-11-11T09:35:47.327Z,24.50
2018-11-11T09:37:08.324Z,24.90
2018-11-11T09:37:47.317Z,25.30
2018-11-11T09:38:47.320Z,26.70
2018-11-11T09:39:47.309Z,25.80
2018-11-11T09:40:47.301Z,28.90
2018-11-11T09:41:47.299Z,27.10
2018-11-11T09:43:08.409Z,27.00
2018-11-11T09:43:47.290Z,24.70
2018-11-11T09:44:47.282Z,25.10
2018-11-11T09:45:47.282Z,26.00
2018-11-11T09:46:47.280Z,25.60
2018-11-11T09:47:47.304Z,25.00
2018-11-11T09:49:08.273Z,24.00
2018-11-11T09:49:47.262Z,24.80
2018-11-11T09:50:47.260Z,26.30
2018-11-11T09:51:47.284Z,23.00
2018-11-11T09:52:47.337Z,23.20
2018-11-11T09:53:47.253Z,24.10
2018-11-11T09:55:08.252Z,24.90
2018-11-11T09:55:47.238Z,25.90
2018-11-11T09:56:47.235Z,24.70
2018-11-11T09:57:47.233Z,26.00
2018-11-11T09:58:47.277Z,25.10
2018-11-11T09:59:47.300Z,24.40
2018-11-11T10:01:08.228Z,23.90
2018-11-11T10:01:47.213Z,22.90
2018-11-11T10:02:47.213Z,20.50
2018-11-11T10:03:47.227Z,23.50
2018-11-11T10:04:47.211Z,22.50
2018-11-11T10:05:47.200Z,23.40
2018-11-11T10:07:08.284Z,22.20
2018-11-11T10:07:47.194Z,23.50
2018-11-11T10:08:47.188Z,21.20
2018-11-11T10:09:47.189Z,19.90
2018-11-11T10:10:47.181Z,21.30
2018-11-11T10:11:47.179Z,22.60
2018-11-11T10:13:08.207Z,17.90
2018-11-11T10:13:47.173Z,20.80
2018-11-11T10:14:47.168Z,23.40
2018-11-11T10:15:47.170Z,19.30
2018-11-11T10:16:47.167Z,22.80
2018-11-11T10:17:47.155Z,20.50
2018-11-11T10:19:08.165Z,19.50
2018-11-11T10:19:47.158Z,17.90
2018-11-11T10:20:47.240Z,19.80
2018-11-11T10:21:47.166Z,20.90
2018-11-11T10:22:47.141Z,18.50
2018-11-11T10:23:47.135Z,19.90
2018-11-11T10:25:08.138Z,18.20
2018-11-11T10:25:47.128Z,19.70
2018-11-11T10:26:47.124Z,17.50
2018-11-11T10:27:47.128Z,18.80
2018-11-11T10:28:47.117Z,17.20
2018-11-11T10:29:47.139Z,18.10
2018-11-11T10:31:08.118Z,19.60
2018-11-11T10:31:47.106Z,18.80
2018-11-11T10:32:47.101Z,17.20
2018-11-11T10:33:47.101Z,17.60
2018-11-11T10:34:47.098Z,17.20
2018-11-11T10:35:47.093Z,18.70
2018-11-11T10:37:08.148Z,18.70
2018-11-11T10:37:47.088Z,19.80
2018-11-11T10:38:47.081Z,17.40
2018-11-11T10:39:47.078Z,16.30
2018-11-11T10:40:47.077Z,16.60
2018-11-11T10:41:47.072Z,17.80
2018-11-11T10:43:08.102Z,16.20
2018-11-11T10:43:47.063Z,16.10
2018-11-11T10:44:47.081Z,16.20
2018-11-11T10:45:47.057Z,16.80
2018-11-11T10:46:47.054Z,16.10
2018-11-11T10:47:47.050Z,14.60
2018-11-11T10:49:08.053Z,14.60
2018-11-11T10:49:47.046Z,15.10
2018-11-11T10:50:47.040Z,16.90
2018-11-11T10:51:47.038Z,14.30
2018-11-11T10:52:47.086Z,15.00
2018-11-11T10:53:47.026Z,14.70
2018-11-11T10:55:08.037Z,11.90
2018-11-11T10:55:47.022Z,14.80
2018-11-11T10:56:47.017Z,13.00
2018-11-11T10:57:47.017Z,12.70
2018-11-11T10:58:47.013Z,12.50
2018-11-11T10:59:47.008Z,13.60
2018-11-11T11:01:08.013Z,11.50
2018-11-11T11:01:47.000Z,11.40
2018-11-11T11:02:47.025Z,10.80
2018-11-11T11:03:47.087Z,9.00
2018-11-11T11:04:46.990Z,11.40
2018-11-11T11:05:46.990Z,8.20
2018-11-11T11:07:08.039Z,9.90
2018-11-11T11:07:46.979Z,10.50
2018-11-11T11:08:46.994Z,8.50
2018-11-11T11:09:46.970Z,8.60
2018-11-11T11:10:46.971Z,7.90
2018-11-11T11:11:46.963Z,10.40
2018-11-11T11:13:08.092Z,7.10
2018-11-11T11:13:46.976Z,8.60
2018-11-11T11:14:46.951Z,7.50
2018-11-11T11:15:46.952Z,10.00
2018-11-11T11:16:47.046Z,8.70
2018-11-11T11:17:46.941Z,7.40
2018-11-11T11:19:07.947Z,6.70
2018-11-11T11:19:46.933Z,6.90
2018-11-11T11:20:46.929Z,7.50
2018-11-11T11:21:46.963Z,7.70
2018-11-11T11:22:46.947Z,7.60
2018-11-11T11:23:46.924Z,7.00
2018-11-11T11:25:07.921Z,7.90
2018-11-11T11:25:47.015Z,8.30
2018-11-11T11:26:46.910Z,9.30
2018-11-11T11:27:46.909Z,9.40
2018-11-11T11:28:46.904Z,8.10
2018-11-11T11:29:46.896Z,6.90
2018-11-11T11:31:07.919Z,7.10
2018-11-11T11:31:47.057Z,7.60
2018-11-11T11:32:46.885Z,6.50
2018-11-11T11:33:46.882Z,5.90
2018-11-11T11:34:46.877Z,5.20
2018-11-11T11:35:46.953Z,6.20
2018-11-11T11:37:07.938Z,5.40
2018-11-11T11:37:46.939Z,5.30
2018-11-11T11:38:46.884Z,6.10
2018-11-11T11:39:46.912Z,4.20
2018-11-11T11:40:46.884Z,4.60
2018-11-11T11:41:46.883Z,5.80
2018-11-11T11:43:07.897Z,5.40
2018-11-11T11:43:46.867Z,4.80
2018-11-11T11:44:46.849Z,4.70
2018-11-11T11:45:46.842Z,6.20
2018-11-11T11:46:46.834Z,5.50
2018-11-11T11:47:46.837Z,5.00
2018-11-11T11:49:07.835Z,4.70
2018-11-11T11:49:46.845Z,3.90
2018-11-11T11:50:46.826Z,9.40
2018-11-11T11:51:46.848Z,3.60
2018-11-11T11:52:46.869Z,4.10
2018-11-11T11:53:46.810Z,4.60
2018-11-11T11:55:07.814Z,4.80
2018-11-11T11:55:46.880Z,3.80
2018-11-11T11:56:46.804Z,4.30
2018-11-11T11:57:46.847Z,4.60
2018-11-11T11:58:46.792Z,4.10
2018-11-11T11:59:46.806Z,4.30
2018-11-11T12:01:07.792Z,4.70
2018-11-11T12:01:46.866Z,5.30
2018-11-11T12:02:46.782Z,3.60
2018-11-11T12:03:46.777Z,3.50
2018-11-11T12:04:46.784Z,5.30
2018-11-11T12:05:46.767Z,3.80
2018-11-11T12:07:07.774Z,4.60
2018-11-11T12:07:46.762Z,2.90
2018-11-11T12:08:46.822Z,3.40
2018-11-11T12:09:46.787Z,4.10
2018-11-11T12:10:46.751Z,4.10
2018-11-11T12:11:46.752Z,3.30
2018-11-11T12:13:07.921Z,3.40
2018-11-11T12:13:46.798Z,3.10
2018-11-11T12:14:46.806Z,4.20
2018-11-11T12:15:46.739Z,4.90
2018-11-11T12:16:46.860Z,3.30
2018-11-11T12:17:46.727Z,3.00
2018-11-11T12:19:07.732Z,3.40
2018-11-11T12:19:46.721Z,3.70
2018-11-11T12:20:46.730Z,4.00
2018-11-11T12:21:46.713Z,3.20
2018-11-11T12:22:46.712Z,2.70
2018-11-11T12:23:46.718Z,2.60
2018-11-11T12:25:07.724Z,5.50
2018-11-11T12:25:46.702Z,4.30
2018-11-11T12:26:46.697Z,4.00
2018-11-11T12:27:46.697Z,3.30
2018-11-11T12:28:46.702Z,2.40
2018-11-11T12:29:46.691Z,3.60
2018-11-11T12:31:07.695Z,3.50
2018-11-11T12:31:46.750Z,3.50
2018-11-11T12:32:46.680Z,3.60
2018-11-11T12:33:46.675Z,3.90
2018-11-11T12:34:46.670Z,4.70
2018-11-11T12:35:46.669Z,4.90
2018-11-11T12:37:07.671Z,3.70
2018-11-11T12:37:46.662Z,3.30
2018-11-11T12:38:46.669Z,3.70
2018-11-11T12:39:46.850Z,3.20
2018-11-11T12:40:46.658Z,3.30
2018-11-11T12:41:46.649Z,2.20
2018-11-11T12:43:07.745Z,2.50
2018-11-11T12:43:46.644Z,4.60
2018-11-11T12:44:46.723Z,3.20
2018-11-11T12:45:46.641Z,3.50
2018-11-11T12:46:46.646Z,3.70
2018-11-11T12:47:46.630Z,4.80
2018-11-11T12:49:07.716Z,4.10
2018-11-11T12:49:46.623Z,3.20
2018-11-11T12:50:46.626Z,3.40
2018-11-11T12:51:46.620Z,3.40
2018-11-11T12:52:46.612Z,3.30
2018-11-11T12:53:46.607Z,4.20
2018-11-11T12:55:07.629Z,4.60
2018-11-11T12:55:46.604Z,2.80